Time;durP1;ratioP1;P1;durP2;ratioP2;P2;SDS_P1;SDS_P2;PMS_P1;PMS_P2;Temp;Humidity;BMP_temperature;BMP_pressure;BME280_temperature;BME280_humidity;BME280_pressure;Samples;Min_cycle;Max_cycle;Signal;HPM_P1;HPM_P2
2022/01/15 00:01:04;;;;;;;62.80;22.42;;;2.10;82.80;;;;;;5078222;28;20115;-75
2022/01/15 00:03:30;;;;;;;50.20;20.20;;;2.00;83.60;;;;;;5093672;28;20063;-75
2022/01/15 00:05:56;;;;;;;58.30;22.63;;;2.00;83.60;;;;;;5093437;28;20016;-75
2022/01/15 00:08:22;;;;;;;58.20;23.42;;;2.00;83.60;;;;;;5093766;28;20032;-76
2022/01/15 00:10:48;;;;;;;51.08;22.02;;;2.00;83.90;;;;;;5095077;28;20028;-76
2022/01/15 00:13:23;;;;;;;60.08;20.75;;;2.00;83.90;;;;;;5076984;28;20035;-76
2022/01/15 00:16:03;;;;;;;51.70;20.65;;;2.20;83.60;;;;;;5073343;28;20185;-75
2022/01/15 00:18:41;;;;;;;49.87;19.47;;;2.30;83.00;;;;;;5088451;28;20048;-76
2022/01/15 00:21:09;;;;;;;51.20;19.70;;;2.20;83.00;;;;;;5081875;28;20029;-76
2022/01/15 00:23:35;;;;;;;52.72;20.13;;;2.10;82.50;;;;;;5073383;28;20477;-76
2022/01/15 00:26:00;;;;;;;42.05;16.85;;;2.20;83.10;;;;;;5074646;28;20040;-76
2022/01/15 00:28:26;;;;;;;54.65;19.63;;;2.00;82.80;;;;;;5073366;28;20032;-76
2022/01/15 00:30:52;;;;;;;48.40;18.98;;;2.00;83.10;;;;;;5073496;28;20408;-75
2022/01/15 00:33:24;;;;;;;58.50;22.77;;;2.10;83.10;;;;;;5073369;28;20028;-76
2022/01/15 00:35:49;;;;;;;57.50;21.70;;;2.00;83.10;;;;;;5079859;28;20023;-75
2022/01/15 00:38:15;;;;;;;52.97;20.60;;;2.20;83.10;;;;;;5090207;28;20114;-76
2022/01/15 00:40:41;;;;;;;56.03;21.88;;;2.20;82.90;;;;;;5076079;28;20016;-76
2022/01/15 00:43:07;;;;;;;50.65;20.05;;;2.30;82.50;;;;;;5091834;28;20031;-76
2022/01/15 00:45:33;;;;;;;52.70;19.02;;;2.40;82.40;;;;;;5082391;28;20067;-76
2022/01/15 00:47:59;;;;;;;47.35;18.45;;;2.50;82.00;;;;;;5077045;28;20024;-76
2022/01/15 00:50:27;;;;;;;47.30;19.35;;;2.60;81.60;;;;;;5078532;28;20546;-76
2022/01/15 00:52:53;;;;;;;44.22;18.55;;;2.50;81.00;;;;;;5078486;28;20080;-76
2022/01/15 00:55:19;;;;;;;45.35;18.00;;;2.40;81.40;;;;;;5078115;28;20523;-76
2022/01/15 00:57:45;;;;;;;48.33;18.13;;;2.30;81.70;;;;;;5076721;28;20024;-76
2022/01/15 01:00:17;;;;;;;46.58;18.30;;;2.20;81.60;;;;;;5078404;28;20409;-75
2022/01/15 01:02:43;;;;;;;45.40;18.10;;;2.00;82.20;;;;;;5095104;28;20409;-75
2022/01/15 01:05:10;;;;;;;36.35;16.65;;;1.90;82.90;;;;;;5097262;28;20515;-76
2022/01/15 01:07:36;;;;;;;43.15;17.85;;;1.80;83.30;;;;;;5092698;28;20040;-75
2022/01/15 01:20:51;;;;;;;52.60;21.10;;;1.90;83.20;;;;;;5094417;28;20071;-76
2022/01/15 01:23:09;;;;;;;58.88;19.25;;;1.80;83.60;;;;;;5077670;28;20406;-76
2022/01/15 01:25:48;;;;;;;46.92;15.88;;;1.80;83.50;;;;;;5077807;28;20020;-75
2022/01/15 01:28:28;;;;;;;54.25;18.80;;;1.90;83.30;;;;;;5077701;28;20104;-76
2022/01/15 01:33:53;;;;;;;49.92;20.15;;;1.90;83.50;;;;;;5072652;28;20063;-76
2022/01/15 01:38:57;;;;;;;49.25;19.05;;;2.00;83.40;;;;;;5077820;28;20032;-76
2022/01/15 01:41:24;;;;;;;40.80;15.55;;;2.10;83.00;;;;;;5077676;28;20028;-75
2022/01/15 01:44:00;;;;;;;52.33;20.23;;;1.90;82.80;;;;;;5096446;28;20486;-76
2022/01/15 01:48:54;;;;;;;47.20;18.63;;;1.90;83.30;;;;;;5097489;28;20055;-76
2022/01/15 01:51:34;;;;;;;47.95;20.17;;;2.00;83.30;;;;;;5079595;28;20033;-76
2022/01/15 01:54:05;;;;;;;57.65;21.92;;;2.20;83.10;;;;;;5077433;28;20090;-75
2022/01/15 01:56:32;;;;;;;52.03;20.42;;;2.30;82.60;;;;;;5075918;28;20032;-75
2022/01/15 01:58:58;;;;;;;47.42;18.08;;;2.40;82.10;;;;;;5077314;28;20032;-75
2022/01/15 02:01:25;;;;;;;53.75;19.00;;;2.40;81.80;;;;;;5077129;28;20047;-76
2022/01/15 02:03:53;;;;;;;51.38;20.13;;;2.40;81.80;;;;;;5075987;28;20025;-75
2022/01/15 02:06:19;;;;;;;54.42;20.88;;;2.50;81.70;;;;;;5077299;28;20028;-76
2022/01/15 02:08:47;;;;;;;46.45;18.20;;;2.40;81.90;;;;;;5092589;28;20120;-76
2022/01/15 02:11:13;;;;;;;43.10;19.00;;;2.30;81.90;;;;;;5096911;28;20028;-76
2022/01/15 02:13:42;;;;;;;47.88;19.35;;;2.40;82.10;;;;;;5090343;28;20825;-75
2022/01/15 02:16:08;;;;;;;51.63;20.13;;;2.30;81.70;;;;;;5076966;28;20055;-76
2022/01/15 02:18:35;;;;;;;46.22;19.27;;;2.30;82.10;;;;;;5091222;28;20394;-76
2022/01/15 02:23:47;;;;;;;54.45;19.65;;;2.40;82.30;;;;;;5076957;28;20505;-76
2022/01/15 02:26:23;;;;;;;57.92;19.92;;;2.50;81.90;;;;;;5094948;28;20032;-75
2022/01/15 02:28:58;;;;;;;55.53;20.20;;;2.40;81.90;;;;;;5095399;28;20047;-75
2022/01/15 02:31:26;;;;;;;50.92;19.67;;;2.40;82.00;;;;;;5091115;28;20036;-76
2022/01/15 02:33:54;;;;;;;63.00;21.38;;;2.50;81.90;;;;;;5075159;28;20024;-76
2022/01/15 02:36:31;;;;;;;57.70;21.67;;;2.50;81.70;;;;;;5087568;28;20436;-76
2022/01/15 02:38:57;;;;;;;61.15;19.88;;;2.60;81.60;;;;;;5092372;28;20514;-76
2022/01/15 02:41:32;;;;;;;54.40;20.13;;;2.60;81.20;;;;;;5076752;28;20505;-75
2022/01/15 02:44:00;;;;;;;50.45;20.15;;;2.50;81.40;;;;;;5096291;28;20016;-76
2022/01/15 02:49:00;;;;;;;52.47;19.85;;;2.50;81.40;;;;;;5078083;28;20040;-76
2022/01/15 02:51:28;;;;;;;54.85;21.60;;;2.50;81.20;;;;;;5076281;28;20074;-76
2022/01/15 02:53:57;;;;;;;48.38;20.02;;;2.60;81.10;;;;;;5074883;28;20513;-75
2022/01/15 02:56:28;;;;;;;55.38;21.73;;;2.70;81.00;;;;;;5076155;28;20024;-76
2022/01/15 02:58:54;;;;;;;48.13;20.02;;;2.60;80.80;;;;;;5075879;28;20111;-76
2022/01/15 03:01:23;;;;;;;50.72;19.90;;;2.50;80.50;;;;;;5081704;28;20024;-76
2022/01/15 03:03:49;;;;;;;56.03;20.20;;;2.50;80.90;;;;;;5080001;28;20475;-76
2022/01/15 03:06:16;;;;;;;55.58;20.17;;;2.50;81.00;;;;;;5074638;28;20047;-75
2022/01/15 03:08:44;;;;;;;58.03;22.00;;;2.50;81.10;;;;;;5075532;28;20029;-76
2022/01/15 03:11:11;;;;;;;54.78;20.40;;;2.50;80.90;;;;;;5075968;28;20469;-76
2022/01/15 03:13:39;;;;;;;60.67;21.27;;;2.60;81.00;;;;;;5075614;28;20561;-76
2022/01/15 03:16:11;;;;;;;50.63;21.63;;;2.50;80.90;;;;;;5095586;28;20076;-76
2022/01/15 03:18:36;;;;;;;51.53;20.85;;;2.60;80.90;;;;;;5095602;28;20044;-76
2022/01/15 03:21:02;;;;;;;54.67;21.77;;;2.60;80.80;;;;;;5095784;28;20024;-75
2022/01/15 03:23:28;;;;;;;51.10;19.60;;;2.50;81.20;;;;;;5077123;28;20099;-76
2022/01/15 03:25:54;;;;;;;66.10;21.95;;;2.50;81.00;;;;;;5075633;28;20497;-76
2022/01/15 03:28:19;;;;;;;57.05;22.05;;;2.60;80.90;;;;;;5075727;28;20492;-76
2022/01/15 03:30:45;;;;;;;53.17;19.10;;;2.50;80.60;;;;;;5075357;28;20044;-76
2022/01/15 03:33:11;;;;;;;57.08;22.70;;;2.50;81.00;;;;;;5075399;28;20025;-76
2022/01/15 03:35:40;;;;;;;58.40;22.02;;;2.60;81.00;;;;;;5075277;28;20067;-75
2022/01/15 03:38:07;;;;;;;53.97;21.27;;;2.50;81.10;;;;;;5075238;28;20028;-75
2022/01/15 03:40:34;;;;;;;45.90;20.55;;;2.50;81.10;;;;;;5075125;28;20028;-76
2022/01/15 03:43:00;;;;;;;60.13;22.52;;;2.30;80.60;;;;;;5078931;28;20036;-76
2022/01/15 03:45:26;;;;;;;60.95;23.52;;;2.30;81.30;;;;;;5075139;28;20070;-75
2022/01/15 03:47:52;;;;;;;55.33;23.30;;;2.30;81.30;;;;;;5075381;28;20064;-75
2022/01/15 03:50:19;;;;;;;62.78;24.20;;;2.30;81.60;;;;;;5073764;28;20036;-75
2022/01/15 03:52:46;;;;;;;57.35;23.42;;;2.30;81.70;;;;;;5075081;28;20032;-75
2022/01/15 03:55:14;;;;;;;57.22;23.02;;;2.40;81.60;;;;;;5074875;28;20012;-76
2022/01/15 03:57:40;;;;;;;60.45;21.38;;;2.50;81.50;;;;;;5074957;28;20101;-75
2022/01/15 04:00:16;;;;;;;64.88;22.77;;;2.60;81.20;;;;;;5075004;28;20036;-76
2022/01/15 04:02:42;;;;;;;61.35;22.52;;;2.60;80.90;;;;;;5074908;28;20028;-76
2022/01/15 04:05:09;;;;;;;65.47;23.50;;;2.60;80.70;;;;;;5074942;28;20035;-76
2022/01/15 04:07:35;;;;;;;57.85;20.77;;;2.60;80.40;;;;;;5074994;28;20028;-76
2022/01/15 04:10:02;;;;;;;57.47;21.42;;;2.50;80.60;;;;;;5074771;28;20115;-75
2022/01/15 04:12:28;;;;;;;54.85;21.15;;;2.50;80.90;;;;;;5074923;28;20023;-76
2022/01/15 04:14:54;;;;;;;58.05;21.52;;;2.50;80.90;;;;;;5074389;28;20032;-76
2022/01/15 04:17:20;;;;;;;55.08;20.67;;;2.50;80.40;;;;;;5079259;28;20439;-76
2022/01/15 04:19:46;;;;;;;56.67;20.38;;;2.50;80.60;;;;;;5092916;28;20048;-76
2022/01/15 04:22:11;;;;;;;44.47;19.92;;;2.50;81.00;;;;;;5095100;28;20023;-76
2022/01/15 04:24:37;;;;;;;55.35;20.33;;;2.30;80.10;;;;;;5093574;28;20077;-76
2022/01/15 04:27:03;;;;;;;56.00;22.27;;;2.30;81.10;;;;;;5092886;28;20028;-76
2022/01/15 04:29:30;;;;;;;61.70;21.83;;;2.50;80.90;;;;;;5089979;28;20507;-75
2022/01/15 04:31:56;;;;;;;59.65;22.33;;;2.40;80.80;;;;;;5073058;28;20013;-76
2022/01/15 04:34:27;;;;;;;65.50;22.95;;;2.30;80.60;;;;;;5080073;28;20035;-75
2022/01/15 04:36:59;;;;;;;56.05;21.30;;;2.20;81.00;;;;;;5090460;28;20111;-75
2022/01/15 04:39:25;;;;;;;50.42;20.13;;;2.30;81.30;;;;;;5090255;28;20029;-76
2022/01/15 04:41:51;;;;;;;60.20;22.42;;;2.30;81.30;;;;;;5081441;28;20104;-76
2022/01/15 04:44:17;;;;;;;60.28;21.25;;;2.30;81.10;;;;;;5093693;28;20371;-76
2022/01/15 04:46:42;;;;;;;54.08;21.30;;;2.30;81.00;;;;;;5089270;28;20380;-76
2022/01/15 04:49:10;;;;;;;60.08;21.10;;;2.40;81.00;;;;;;5074273;28;20032;-75
2022/01/15 04:51:37;;;;;;;53.28;20.40;;;2.30;80.90;;;;;;5090437;28;20112;-76
2022/01/15 04:54:03;;;;;;;60.78;20.38;;;2.30;80.90;;;;;;5074471;28;20372;-76
2022/01/15 04:56:29;;;;;;;58.83;20.40;;;2.30;81.30;;;;;;5074565;28;20027;-76
2022/01/15 04:58:55;;;;;;;49.08;19.45;;;2.20;81.30;;;;;;5074517;28;20398;-76
2022/01/15 05:01:20;;;;;;;50.25;19.60;;;2.20;81.70;;;;;;5073247;28;20024;-75
2022/01/15 05:03:46;;;;;;;62.78;21.50;;;2.20;81.90;;;;;;5074449;28;20478;-75
2022/01/15 05:06:12;;;;;;;53.60;18.90;;;2.10;81.60;;;;;;5074081;28;20070;-76
2022/01/15 05:08:40;;;;;;;57.97;21.23;;;2.10;81.70;;;;;;5074283;28;20024;-76
2022/01/15 05:11:13;;;;;;;50.10;17.80;;;2.00;82.40;;;;;;5074464;28;20020;-76
2022/01/15 05:13:39;;;;;;;46.75;19.13;;;2.00;82.60;;;;;;5073340;28;20039;-76
2022/01/15 05:16:06;;;;;;;55.97;19.90;;;2.00;82.50;;;;;;5079558;28;20120;-76
2022/01/15 05:18:32;;;;;;;61.65;21.30;;;2.00;82.50;;;;;;5088460;28;20032;-76
2022/01/15 05:20:57;;;;;;;55.58;21.75;;;2.10;82.50;;;;;;5094438;28;20024;-76
2022/01/15 05:23:23;;;;;;;54.40;19.85;;;2.20;82.70;;;;;;5092269;28;20473;-76
2022/01/15 05:25:49;;;;;;;60.28;21.38;;;2.20;82.60;;;;;;5094572;28;20334;-76
2022/01/15 05:28:15;;;;;;;45.40;18.38;;;2.20;82.70;;;;;;5085853;28;20482;-76
2022/01/15 05:30:40;;;;;;;53.40;20.05;;;2.20;82.60;;;;;;5077596;28;20047;-76
2022/01/15 05:33:06;;;;;;;50.03;19.63;;;2.20;82.70;;;;;;5077926;28;20028;-76
2022/01/15 05:35:32;;;;;;;60.47;22.65;;;2.10;83.00;;;;;;5077684;28;20055;-75
2022/01/15 05:37:59;;;;;;;51.63;20.60;;;2.20;83.00;;;;;;5077645;28;20470;-76
2022/01/15 05:40:28;;;;;;;63.83;24.00;;;2.20;82.80;;;;;;5077798;28;20029;-76
2022/01/15 05:42:54;;;;;;;60.70;21.95;;;2.20;82.80;;;;;;5088470;28;20035;-75
2022/01/15 05:45:24;;;;;;;60.55;20.85;;;2.20;82.90;;;;;;5085253;28;20467;-76
2022/01/15 05:47:51;;;;;;;56.75;20.40;;;2.10;83.10;;;;;;5077700;28;20028;-76
2022/01/15 05:50:17;;;;;;;58.42;21.38;;;2.20;83.60;;;;;;5077343;28;20028;-76
2022/01/15 05:52:42;;;;;;;53.75;20.52;;;2.20;83.60;;;;;;5077413;28;20028;-76
2022/01/15 05:55:08;;;;;;;51.58;18.48;;;2.20;83.80;;;;;;5077336;28;20021;-76
2022/01/15 05:57:34;;;;;;;55.92;21.65;;;2.20;83.90;;;;;;5077365;28;20020;-76
2022/01/15 05:59:59;;;;;;;60.65;20.73;;;2.20;84.00;;;;;;5077070;28;20029;-74
2022/01/15 06:02:25;;;;;;;55.13;21.35;;;2.20;84.30;;;;;;5077017;28;20028;-74
2022/01/15 06:04:51;;;;;;;62.92;22.95;;;2.20;84.10;;;;;;5076892;28;20058;-74
2022/01/15 06:07:17;;;;;;;62.33;20.75;;;2.20;84.50;;;;;;5075872;28;20100;-74
2022/01/15 06:09:42;;;;;;;64.43;23.50;;;2.20;84.30;;;;;;5077304;28;20035;-75
2022/01/15 06:12:09;;;;;;;62.72;21.40;;;2.10;84.20;;;;;;5077077;28;20025;-74
2022/01/15 06:14:38;;;;;;;63.22;21.45;;;2.00;84.20;;;;;;5077054;28;20061;-74
2022/01/15 06:17:04;;;;;;;60.13;23.00;;;2.00;84.30;;;;;;5078854;28;20025;-75
2022/01/15 06:19:30;;;;;;;56.08;18.95;;;2.10;84.40;;;;;;5095323;28;20058;-74
2022/01/15 06:21:59;;;;;;;62.30;21.85;;;2.00;84.50;;;;;;5091276;28;20507;-74
2022/01/15 06:24:24;;;;;;;57.65;21.45;;;1.90;84.80;;;;;;5077071;28;20028;-74
2022/01/15 06:26:50;;;;;;;63.83;24.05;;;1.90;85.00;;;;;;5076547;28;20029;-75
2022/01/15 06:29:16;;;;;;;70.03;24.65;;;2.10;84.80;;;;;;5091948;28;20051;-75
2022/01/15 06:31:48;;;;;;;64.35;22.08;;;2.00;84.80;;;;;;5095439;28;20509;-74
2022/01/15 06:34:14;;;;;;;55.33;21.88;;;2.00;85.10;;;;;;5094343;28;20020;-75
2022/01/15 06:36:40;;;;;;;62.85;22.85;;;2.00;85.00;;;;;;5075213;28;20035;-74
2022/01/15 06:39:05;;;;;;;65.07;22.23;;;2.10;85.20;;;;;;5076570;28;20036;-74
2022/01/15 06:41:31;;;;;;;51.10;21.13;;;2.10;84.70;;;;;;5076486;28;20522;-74
2022/01/15 06:43:57;;;;;;;73.95;22.50;;;2.10;85.00;;;;;;5083945;28;20033;-74
2022/01/15 06:46:22;;;;;;;70.07;22.70;;;2.00;85.30;;;;;;5076489;28;20051;-74
2022/01/15 06:48:48;;;;;;;41.97;15.50;;;2.00;85.60;;;;;;5075977;28;20029;-74
2022/01/15 06:51:15;;;;;;;56.33;20.83;;;1.90;85.70;;;;;;5076098;28;20044;-74
2022/01/15 06:53:40;;;;;;;58.72;22.60;;;1.80;86.10;;;;;;5076534;28;20027;-74
2022/01/15 06:56:06;;;;;;;59.10;21.05;;;1.80;86.50;;;;;;5075649;28;20482;-74
2022/01/15 06:58:32;;;;;;;79.45;25.55;;;1.80;86.30;;;;;;5076215;28;20020;-74
2022/01/15 07:00:58;;;;;;;58.72;20.60;;;1.80;86.60;;;;;;5076179;28;20055;-75
2022/01/15 07:03:23;;;;;;;73.07;21.05;;;1.80;86.50;;;;;;5075780;28;20081;-75
2022/01/15 07:05:52;;;;;;;37.35;16.20;;;1.80;86.40;;;;;;5088011;28;20089;-74
2022/01/15 07:08:18;;;;;;;56.53;21.98;;;1.80;86.60;;;;;;5096067;28;20119;-80
2022/01/15 07:10:43;;;;;;;66.85;21.40;;;1.90;86.60;;;;;;5094256;28;20055;-79
2022/01/15 07:13:10;;;;;;;69.47;22.65;;;2.00;86.60;;;;;;5093360;28;20465;-77
2022/01/15 07:15:36;;;;;;;56.45;19.65;;;2.20;86.20;;;;;;5095848;28;20035;-78
2022/01/15 07:18:02;;;;;;;59.17;20.30;;;2.20;85.80;;;;;;5095894;28;20496;-77
2022/01/15 07:20:28;;;;;;;46.33;19.50;;;2.20;85.90;;;;;;5086979;28;20123;-77
2022/01/15 07:22:56;;;;;;;69.97;21.48;;;2.10;85.80;;;;;;5075547;28;20547;-76
2022/01/15 07:25:22;;;;;;;68.50;23.45;;;2.10;85.80;;;;;;5075500;28;20398;-79
2022/01/15 07:27:48;;;;;;;63.67;22.23;;;2.20;86.20;;;;;;5091463;28;20030;-76
2022/01/15 07:30:15;;;;;;;60.33;22.52;;;2.20;85.80;;;;;;5075171;28;20505;-78
2022/01/15 07:32:42;;;;;;;68.03;20.98;;;2.10;85.60;;;;;;5074098;28;20078;-76
2022/01/15 07:35:10;;;;;;;69.55;22.05;;;2.10;85.90;;;;;;5074267;28;20031;-77
2022/01/15 07:37:36;;;;;;;73.30;24.92;;;2.10;86.00;;;;;;5075442;28;20013;-78
2022/01/15 07:40:07;;;;;;;72.22;22.98;;;2.20;86.30;;;;;;5075484;28;20029;-77
2022/01/15 07:42:38;;;;;;;61.15;20.77;;;2.10;86.00;;;;;;5083721;28;20027;-77
2022/01/15 07:45:10;;;;;;;55.45;21.08;;;2.10;85.90;;;;;;5095463;28;20085;-78
2022/01/15 07:47:37;;;;;;;62.47;20.85;;;2.20;86.30;;;;;;5084794;28;20036;-78
2022/01/15 07:50:05;;;;;;;58.63;19.73;;;2.20;86.40;;;;;;5074769;28;20029;-78
2022/01/15 07:52:31;;;;;;;53.58;21.52;;;2.20;86.00;;;;;;5075182;28;20154;-77
2022/01/15 07:54:58;;;;;;;54.80;20.25;;;2.20;86.30;;;;;;5067797;28;20032;-78
2022/01/15 07:57:34;;;;;;;61.25;21.23;;;2.30;86.00;;;;;;5089558;28;20016;-77
2022/01/15 08:00:00;;;;;;;58.40;19.88;;;2.20;85.70;;;;;;5077751;28;20131;-77
2022/01/15 08:02:26;;;;;;;74.38;22.48;;;2.30;85.80;;;;;;5074646;28;20106;-77
2022/01/15 08:04:54;;;;;;;58.65;21.02;;;2.30;86.00;;;;;;5074234;28;20035;-76
2022/01/15 08:07:19;;;;;;;59.17;19.83;;;2.30;86.20;;;;;;5074827;28;20090;-77
2022/01/15 08:09:45;;;;;;;66.78;21.55;;;2.30;86.10;;;;;;5088153;28;20028;-77
2022/01/15 08:12:11;;;;;;;75.35;22.83;;;2.40;85.90;;;;;;5092252;28;20024;-77
2022/01/15 08:14:37;;;;;;;74.82;23.58;;;2.50;86.00;;;;;;5086099;28;20027;-77
2022/01/15 08:17:03;;;;;;;54.80;20.45;;;2.50;85.60;;;;;;5088243;28;20448;-77
2022/01/15 08:19:29;;;;;;;62.17;21.60;;;2.50;85.90;;;;;;5086418;28;20057;-77
2022/01/15 08:21:55;;;;;;;58.92;21.60;;;2.50;85.90;;;;;;5079393;28;20091;-77
2022/01/15 08:27:31;;;;;;;66.93;20.42;;;2.40;86.00;;;;;;5101341;27;20440;-81
2022/01/15 08:29:57;;;;;;;59.67;21.10;;;2.30;86.40;;;;;;5083376;28;20400;-79
2022/01/15 08:32:23;;;;;;;61.15;23.05;;;2.20;86.40;;;;;;5089588;28;20103;-81
2022/01/15 08:34:49;;;;;;;62.35;22.88;;;2.30;86.50;;;;;;5097361;28;20501;-81
2022/01/15 08:37:14;;;;;;;70.47;23.75;;;2.40;86.50;;;;;;5090947;28;20028;-80
2022/01/15 08:39:40;;;;;;;62.45;18.98;;;2.50;86.60;;;;;;5091042;28;20035;-78
2022/01/15 08:42:07;;;;;;;56.97;21.00;;;2.60;86.00;;;;;;5091895;28;20024;-79
2022/01/15 08:44:34;;;;;;;49.80;19.30;;;2.70;85.70;;;;;;5092321;28;20017;-79
2022/01/15 08:47:02;;;;;;;56.42;18.98;;;2.70;85.60;;;;;;5090981;28;20470;-79
2022/01/15 08:49:28;;;;;;;60.38;20.83;;;2.70;85.50;;;;;;5092192;28;20036;-79
2022/01/15 08:51:54;;;;;;;51.17;17.40;;;2.70;85.00;;;;;;5091624;28;20012;-79
2022/01/15 08:54:19;;;;;;;49.95;16.90;;;2.70;85.60;;;;;;5092340;28;20092;-79
2022/01/15 08:56:45;;;;;;;51.17;17.90;;;2.80;84.80;;;;;;5090981;28;20058;-79
2022/01/15 08:59:11;;;;;;;49.75;17.38;;;2.80;85.50;;;;;;5091727;28;20032;-79
2022/01/15 09:01:37;;;;;;;54.85;17.65;;;2.80;85.60;;;;;;5092149;28;20056;-79
2022/01/15 09:04:03;;;;;;;52.17;18.42;;;2.70;85.30;;;;;;5090277;28;20031;-79
2022/01/15 09:06:28;;;;;;;64.47;19.85;;;2.80;85.30;;;;;;5091848;28;20035;-79
2022/01/15 09:08:54;;;;;;;50.63;17.90;;;2.70;85.00;;;;;;5091347;28;20032;-79
2022/01/15 09:11:20;;;;;;;37.47;16.95;;;2.80;85.60;;;;;;5091862;28;20062;-79
2022/01/15 09:13:45;;;;;;;43.63;16.98;;;2.80;85.00;;;;;;5091354;28;20021;-79
2022/01/15 09:16:11;;;;;;;46.20;15.60;;;2.80;85.40;;;;;;5091381;28;20024;-79
2022/01/15 09:18:37;;;;;;;45.60;16.67;;;2.90;85.20;;;;;;5091452;28;20024;-79
2022/01/15 09:21:03;;;;;;;41.28;15.68;;;3.00;85.20;;;;;;5091799;28;20629;-79
2022/01/15 09:23:29;;;;;;;41.55;17.92;;;3.10;84.70;;;;;;5090677;28;20032;-79
2022/01/15 09:25:57;;;;;;;37.88;16.83;;;3.20;84.60;;;;;;5091462;28;20075;-79
2022/01/15 09:31:08;;;;;;;48.40;16.70;;;3.20;83.30;;;;;;5091224;28;20027;-79
2022/01/15 09:33:34;;;;;;;47.03;15.20;;;3.10;83.80;;;;;;5083863;28;20024;-79
2022/01/15 09:36:00;;;;;;;51.92;18.17;;;3.00;84.20;;;;;;5089850;28;20028;-76
2022/01/15 09:38:26;;;;;;;50.17;17.23;;;3.10;85.10;;;;;;5068448;28;20044;-78
2022/01/15 09:40:51;;;;;;;45.58;17.30;;;3.20;84.80;;;;;;5076707;28;20472;-79
2022/01/15 09:43:17;;;;;;;51.45;17.17;;;3.20;84.00;;;;;;5076900;28;20455;-78
2022/01/15 09:45:44;;;;;;;44.20;15.57;;;3.30;84.70;;;;;;5071434;28;20033;-79
2022/01/15 09:48:10;;;;;;;45.40;16.52;;;3.20;84.30;;;;;;5076383;28;20439;-80
2022/01/15 09:50:43;;;;;;;44.15;17.85;;;3.20;84.30;;;;;;5075444;28;20054;-79
2022/01/15 09:53:10;;;;;;;44.83;17.08;;;3.30;84.30;;;;;;5074948;28;20107;-79
2022/01/15 09:55:37;;;;;;;49.60;18.75;;;3.30;84.10;;;;;;5075467;28;20028;-80
2022/01/15 09:58:03;;;;;;;48.70;18.02;;;3.50;84.20;;;;;;5070817;28;20024;-81
2022/01/15 10:00:30;;;;;;;52.80;16.60;;;3.50;83.90;;;;;;5075842;28;20021;-81
2022/01/15 10:02:56;;;;;;;52.30;17.83;;;3.50;83.20;;;;;;5076289;28;20052;-80
2022/01/15 10:05:23;;;;;;;55.40;18.77;;;3.50;83.80;;;;;;5072692;28;20028;-81
2022/01/15 10:08:02;;;;;;;52.10;18.27;;;3.50;83.90;;;;;;5073563;28;20097;-81
2022/01/15 10:10:30;;;;;;;47.42;19.10;;;3.60;83.70;;;;;;5072644;28;20546;-81
2022/01/15 10:13:19;;;;;;;54.40;19.00;;;3.60;83.80;;;;;;5073871;28;20021;-82
2022/01/15 10:16:09;;;;;;;43.65;17.83;;;3.50;83.80;;;;;;5071447;28;20138;-80
2022/01/15 10:18:44;;;;;;;55.80;18.17;;;3.40;83.90;;;;;;5070615;28;20024;-80
2022/01/15 10:21:23;;;;;;;53.95;19.02;;;3.60;84.30;;;;;;5073392;28;20024;-80
2022/01/15 10:23:52;;;;;;;54.25;19.90;;;3.70;83.90;;;;;;5074378;28;20024;-81
2022/01/15 10:26:23;;;;;;;50.30;18.77;;;3.70;84.00;;;;;;5075743;28;20052;-80
2022/01/15 10:29:04;;;;;;;46.40;18.48;;;3.70;83.80;;;;;;5076260;28;20032;-81
2022/01/15 10:31:31;;;;;;;;;;;3.70;83.80;;;;;;5072905;28;20029;-81
2022/01/15 10:33:59;;;;;;;38.63;16.13;;;3.80;84.10;;;;;;5076184;28;19958;-80
2022/01/15 10:36:30;;;;;;;49.45;17.20;;;3.70;83.50;;;;;;5073899;28;20047;-85
2022/01/15 10:39:19;;;;;;;50.88;16.23;;;3.70;83.60;;;;;;5075910;28;20600;-80
2022/01/15 10:41:46;;;;;;;45.47;17.48;;;3.70;84.40;;;;;;5077036;28;20107;-81
2022/01/15 10:44:33;;;;;;;59.97;20.58;;;3.60;84.00;;;;;;5074794;28;20028;-82
2022/01/15 10:47:07;;;;;;;59.13;21.65;;;3.50;84.30;;;;;;5053075;28;20025;-82
2022/01/15 10:49:34;;;;;;;96.90;44.45;;;3.60;84.80;;;;;;5084399;28;20087;-82
2022/01/15 10:52:09;;;;;;;66.15;23.38;;;3.40;84.60;;;;;;5073258;28;20036;-82
2022/01/15 10:54:51;;;;;;;77.05;29.60;;;3.40;85.10;;;;;;5073240;28;20039;-82
2022/01/15 10:57:20;;;;;;;76.15;28.05;;;3.40;85.10;;;;;;5074700;28;20083;-82
2022/01/15 10:59:58;;;;;;;63.70;24.40;;;3.60;85.20;;;;;;5073725;28;20017;-85
2022/01/15 11:02:24;;;;;;;58.00;22.30;;;3.60;85.10;;;;;;5074095;28;20024;-76
2022/01/15 11:04:50;;;;;;;64.20;22.00;;;3.70;85.20;;;;;;5071393;28;20021;-79
2022/01/15 11:07:17;;;;;;;71.63;23.17;;;3.80;84.70;;;;;;5058546;28;20546;-82
2022/01/15 11:09:44;;;;;;;70.65;26.42;;;3.80;84.60;;;;;;5072494;28;20447;-83
2022/01/15 11:12:12;;;;;;;58.88;21.70;;;3.80;84.50;;;;;;5061331;28;20521;-82
2022/01/15 11:14:39;;;;;;;63.55;21.02;;;3.90;84.60;;;;;;5072496;28;20043;-80
2022/01/15 11:17:06;;;;;;;83.30;25.42;;;3.90;84.00;;;;;;5073631;28;20051;-81
2022/01/15 11:19:33;;;;;;;64.05;21.08;;;3.90;84.20;;;;;;5073074;28;20029;-81
2022/01/15 11:22:00;;;;;;;57.72;19.15;;;3.90;84.10;;;;;;5073841;28;20036;-81
2022/01/15 11:24:25;;;;;;;65.22;22.52;;;3.90;84.20;;;;;;5073560;28;20394;-82
2022/01/15 11:26:55;;;;;;;74.07;23.95;;;3.90;84.70;;;;;;5068580;28;20136;-80
2022/01/15 11:29:21;;;;;;;63.83;24.38;;;4.20;84.70;;;;;;5061569;28;20028;-78
2022/01/15 11:31:56;;;;;;;66.90;23.38;;;4.20;84.10;;;;;;5074728;28;20039;-83
2022/01/15 11:34:27;;;;;;;56.55;21.65;;;4.30;84.40;;;;;;5071882;28;20100;-85
2022/01/15 11:36:53;;;;;;;61.70;21.30;;;4.40;83.60;;;;;;5068399;28;20028;-78
2022/01/15 11:39:32;;;;;;;71.53;22.48;;;4.30;83.50;;;;;;5070788;28;20111;-75
2022/01/15 11:42:00;;;;;;;60.15;19.08;;;4.40;84.00;;;;;;5057319;28;20024;-76
2022/01/15 11:44:29;;;;;;;66.30;22.00;;;4.50;83.10;;;;;;5068934;28;20090;-76
2022/01/15 11:46:57;;;;;;;67.45;22.80;;;4.40;83.30;;;;;;5061847;28;20955;-75
2022/01/15 11:49:49;;;;;;;67.97;24.42;;;4.30;83.40;;;;;;5072722;28;20634;-75
2022/01/15 11:52:17;;;;;;;71.10;22.55;;;4.40;83.50;;;;;;5074883;28;20063;-77
2022/01/15 11:54:49;;;;;;;69.95;22.10;;;4.40;83.20;;;;;;5073965;28;20375;-77
2022/01/15 11:57:24;;;;;;;60.72;22.02;;;4.30;83.70;;;;;;5073578;28;20047;-75
2022/01/15 11:59:54;;;;;;;56.22;17.85;;;4.40;83.80;;;;;;5073352;28;20055;-76
2022/01/15 12:02:36;;;;;;;69.57;23.10;;;4.40;83.20;;;;;;5073615;28;20028;-76
2022/01/15 12:05:17;;;;;;;67.47;23.13;;;4.60;83.80;;;;;;5073575;28;20033;-75
2022/01/15 12:07:59;;;;;;;62.25;20.25;;;4.60;83.00;;;;;;5057373;28;20020;-76
2022/01/15 12:10:40;;;;;;;55.60;20.83;;;4.60;82.50;;;;;;5074231;28;20024;-84
2022/01/15 12:13:15;;;;;;;64.65;23.00;;;4.60;82.70;;;;;;5073370;28;20020;-76
2022/01/15 12:15:41;;;;;;;70.68;23.88;;;4.50;82.60;;;;;;5067136;28;20021;-80
2022/01/15 12:18:18;;;;;;;69.03;23.45;;;4.60;82.90;;;;;;5060837;28;20786;-76
2022/01/15 12:20:44;;;;;;;60.58;23.55;;;4.60;83.20;;;;;;5061842;28;20050;-76
2022/01/15 12:23:19;;;;;;;70.55;22.65;;;4.60;82.80;;;;;;5064910;28;20024;-78
2022/01/15 12:25:46;;;;;;;75.30;30.63;;;4.70;83.10;;;;;;5062419;28;20056;-77
2022/01/15 12:28:15;;;;;;;65.43;24.95;;;4.70;82.60;;;;;;5063356;28;20470;-77
2022/01/15 12:30:44;;;;;;;79.85;27.10;;;4.70;82.70;;;;;;5065314;28;20031;-77
2022/01/15 12:33:13;;;;;;;74.25;23.35;;;4.80;82.50;;;;;;5069660;28;20063;-77
2022/01/15 12:35:41;;;;;;;56.38;23.13;;;4.80;82.60;;;;;;5062686;28;20037;-77
2022/01/15 12:38:13;;;;;;;71.28;25.83;;;4.80;82.10;;;;;;5064032;28;20059;-77
2022/01/15 12:40:47;;;;;;;64.78;24.77;;;4.90;82.50;;;;;;5066193;28;20056;-75
2022/01/15 12:43:28;;;;;;;65.35;23.10;;;5.00;82.00;;;;;;5070127;28;20016;-77
2022/01/15 12:46:00;;;;;;;57.83;21.05;;;4.90;82.20;;;;;;5071013;28;20024;-76
2022/01/15 12:48:28;;;;;;;60.20;23.08;;;5.00;81.90;;;;;;5071067;28;20498;-77
2022/01/15 12:50:54;;;;;;;73.68;33.42;;;5.10;82.30;;;;;;5070602;28;20021;-77
2022/01/15 12:53:23;;;;;;;60.78;24.85;;;5.20;81.50;;;;;;5068497;28;20080;-76
2022/01/15 12:55:49;;;;;;;63.22;23.30;;;5.20;81.60;;;;;;5084462;28;20047;-76
2022/01/15 12:58:17;;;;;;;55.63;20.73;;;5.20;81.80;;;;;;5069607;28;20016;-76
2022/01/15 13:00:43;;;;;;;64.28;23.15;;;5.20;80.90;;;;;;5065744;28;20128;-77
2022/01/15 13:03:11;;;;;;;54.42;22.40;;;5.20;81.20;;;;;;5068493;28;20488;-76
2022/01/15 13:05:40;;;;;;;58.45;22.50;;;5.30;81.70;;;;;;5069173;28;20111;-76
2022/01/15 13:08:10;;;;;;;60.15;24.85;;;5.40;81.30;;;;;;5067180;28;20025;-76
2022/01/15 13:11:27;;;;;;;;;;;5.50;81.30;;;;;;5058972;28;20043;-77
2022/01/15 13:13:34;;;;;;;55.70;23.08;;;5.50;80.70;;;;;;5067459;28;19915;-76